Time;durP1;ratioP1;P1;durP2;ratioP2;P2;SDS_P1;SDS_P2;PMS_P1;PMS_P2;Temp;Humidity;BMP_temperature;BMP_pressure;BME280_temperature;BME280_humidity;BME280_pressure;Samples;Min_cycle;Max_cycle;Signal;HPM_P1;HPM_P2
2023/08/13 00:00:16;;;;;;;4.82;4.20;;;;;;;19.16;100.00;101059.50;7395165;19;20027;-67
2023/08/13 00:02:45;;;;;;;7.28;4.28;;;;;;;19.16;100.00;101060.34;7397483;19;20105;-67
2023/08/13 00:05:13;;;;;;;4.53;4.13;;;;;;;19.13;100.00;101067.63;7395484;19;20478;-68
2023/08/13 00:07:42;;;;;;;4.20;3.80;;;;;;;19.13;100.00;101067.63;7398167;19;20021;-68
2023/08/13 00:10:11;;;;;;;7.80;4.75;;;;;;;19.09;100.00;101066.94;7397805;19;20502;-68
2023/08/13 00:12:39;;;;;;;4.45;4.05;;;;;;;19.06;100.00;101077.75;7395719;19;20087;-69
2023/08/13 00:15:12;;;;;;;4.40;3.95;;;;;;;19.03;100.00;101076.09;7395822;19;20018;-68
2023/08/13 00:17:41;;;;;;;4.38;3.90;;;;;;;19.03;100.00;101080.53;7398417;19;20030;-68
2023/08/13 00:20:11;;;;;;;4.28;3.75;;;;;;;19.00;100.00;101076.25;7395786;19;20073;-68
2023/08/13 00:22:39;;;;;;;5.07;3.97;;;;;;;18.99;100.00;101079.88;7395497;19;20355;-68
2023/08/13 00:25:09;;;;;;;4.55;4.10;;;;;;;18.97;100.00;101087.03;7395572;19;20035;-68
2023/08/13 00:27:37;;;;;;;4.55;3.90;;;;;;;18.92;100.00;101081.13;7397580;19;20031;-68
2023/08/13 00:30:07;;;;;;;8.48;4.18;;;;;;;18.92;100.00;101090.88;7395584;19;20011;-68
2023/08/13 00:32:38;;;;;;;4.80;4.10;;;;;;;18.89;100.00;101090.06;7397070;19;20383;-69
2023/08/13 00:35:07;;;;;;;4.25;3.85;;;;;;;18.87;100.00;101093.75;7394642;19;20375;-68
2023/08/13 00:37:37;;;;;;;5.00;4.45;;;;;;;18.84;100.00;101093.88;7395441;19;20038;-68
2023/08/13 00:40:06;;;;;;;4.80;4.30;;;;;;;18.80;100.00;101089.69;7394953;19;20007;-68
2023/08/13 00:42:35;;;;;;;5.28;3.90;;;;;;;18.78;100.00;101094.19;7397125;19;20018;-67
2023/08/13 00:45:04;;;;;;;4.20;3.80;;;;;;;18.74;100.00;101090.84;7394719;19;20369;-68
2023/08/13 00:47:32;;;;;;;4.65;4.25;;;;;;;18.72;100.00;101088.25;7395907;19;20014;-68
2023/08/13 00:50:04;;;;;;;6.20;3.85;;;;;;;18.69;100.00;101092.84;7395171;19;20027;-68
2023/08/13 00:52:33;;;;;;;5.20;4.10;;;;;;;18.66;100.00;101093.03;7393434;19;20018;-67
2023/08/13 00:55:02;;;;;;;4.28;3.88;;;;;;;18.62;100.00;101097.63;7394730;19;20027;-68
2023/08/13 00:57:31;;;;;;;5.90;3.83;;;;;;;18.58;100.00;101098.72;7394937;19;20017;-67
2023/08/13 01:00:00;;;;;;;4.78;3.85;;;;;;;18.55;100.00;101099.75;7394352;19;20014;-68
2023/08/13 01:02:29;;;;;;;4.80;4.30;;;;;;;18.50;100.00;101100.91;7394656;19;20074;-67
2023/08/13 01:04:58;;;;;;;4.57;4.18;;;;;;;18.52;100.00;101109.66;7394201;19;20423;-67
2023/08/13 01:07:35;;;;;;;4.00;3.65;;;;;;;18.49;100.00;101105.34;7395841;19;20018;-67
2023/08/13 01:10:13;;;;;;;4.95;4.07;;;;;;;18.47;100.00;101117.00;7395000;19;20006;-66
2023/08/13 01:12:47;;;;;;;4.88;4.47;;;;;;;18.45;100.00;101117.09;7396497;19;20015;-68
2023/08/13 01:15:19;;;;;;;4.40;4.00;;;;;;;18.43;100.00;101128.72;7395605;19;20403;-67
2023/08/13 01:17:51;;;;;;;4.00;3.60;;;;;;;18.42;100.00;101121.69;7396009;19;20010;-68
2023/08/13 01:20:20;;;;;;;4.55;4.15;;;;;;;18.41;100.00;101120.78;7393867;19;20010;-68
2023/08/13 01:22:51;;;;;;;5.82;4.43;;;;;;;18.40;100.00;101116.44;7395304;19;20347;-68
2023/08/13 01:25:20;;;;;;;5.72;4.72;;;;;;;18.38;100.00;101124.47;7394263;19;20010;-69
2023/08/13 01:27:56;;;;;;;4.93;4.43;;;;;;;18.37;100.00;101120.13;7393603;19;20553;-68
2023/08/13 01:30:30;;;;;;;4.68;4.18;;;;;;;18.37;100.00;101125.44;7394325;19;20022;-68
2023/08/13 01:33:03;;;;;;;5.35;4.80;;;;;;;18.37;100.00;101129.84;7395775;19;20015;-68
2023/08/13 01:35:33;;;;;;;4.88;4.38;;;;;;;18.38;100.00;101131.59;7394549;19;20015;-67
2023/08/13 01:38:06;;;;;;;4.65;4.25;;;;;;;18.37;100.00;101133.41;7395887;19;20011;-67
2023/08/13 01:40:34;;;;;;;5.63;4.55;;;;;;;18.39;100.00;101138.63;7394079;19;20018;-66
2023/08/13 01:43:03;;;;;;;7.30;4.70;;;;;;;18.39;100.00;101128.84;7394723;19;20392;-67
2023/08/13 01:45:31;;;;;;;4.75;4.20;;;;;;;18.42;100.00;101127.00;7394468;19;20070;-68
2023/08/13 01:48:00;;;;;;;5.15;4.75;;;;;;;18.41;100.00;101131.44;7392997;19;20046;-67
2023/08/13 01:50:29;;;;;;;4.68;4.28;;;;;;;18.44;100.00;101138.38;7393234;19;20074;-67
2023/08/13 01:52:57;;;;;;;4.95;4.55;;;;;;;18.42;100.00;101141.13;7393216;19;20015;-68
2023/08/13 01:55:29;;;;;;;5.13;4.43;;;;;;;18.43;100.00;101147.31;7392699;19;20502;-67
2023/08/13 01:57:57;;;;;;;6.70;4.50;;;;;;;18.43;100.00;101142.00;7393491;19;20027;-68
2023/08/13 02:00:26;;;;;;;4.70;4.30;;;;;;;18.39;100.00;101139.47;7394359;19;20070;-67
2023/08/13 02:02:55;;;;;;;5.70;5.20;;;;;;;18.41;100.00;101147.38;7394126;19;20024;-68
2023/08/13 02:05:23;;;;;;;6.97;4.78;;;;;;;18.39;100.00;101142.13;7396985;19;20018;-67
2023/08/13 02:07:52;;;;;;;4.95;4.28;;;;;;;18.39;100.00;101152.75;7399515;19;20039;-67
2023/08/13 02:10:20;;;;;;;4.80;4.32;;;;;;;18.37;100.00;101146.69;7398916;19;20477;-69
2023/08/13 02:12:52;;;;;;;4.45;4.05;;;;;;;18.37;100.00;101151.13;7398909;19;20010;-68
2023/08/13 02:15:20;;;;;;;4.45;4.05;;;;;;;18.37;100.00;101153.75;7402497;19;20027;-68
2023/08/13 02:17:49;;;;;;;4.28;3.97;;;;;;;18.36;100.00;101155.56;7399045;19;20023;-68
2023/08/13 02:20:17;;;;;;;4.72;3.88;;;;;;;18.35;100.00;101151.19;7399049;19;20415;-68
2023/08/13 02:22:45;;;;;;;5.57;4.80;;;;;;;18.36;100.00;101157.34;7398999;19;20019;-68
2023/08/13 02:25:14;;;;;;;4.70;4.30;;;;;;;18.34;100.00;101156.59;7398110;19;20027;-67
2023/08/13 02:27:42;;;;;;;5.45;4.38;;;;;;;18.32;100.00;101150.47;7401307;19;20576;-67
2023/08/13 02:30:16;;;;;;;5.25;3.78;;;;;;;18.30;100.00;101153.22;7401404;19;20014;-67
2023/08/13 02:32:44;;;;;;;4.55;3.85;;;;;;;18.29;100.00;101151.47;7402016;19;20022;-67
2023/08/13 02:35:13;;;;;;;4.20;3.90;;;;;;;18.27;100.00;101155.16;7398004;19;20014;-67
2023/08/13 02:37:41;;;;;;;4.13;3.70;;;;;;;18.24;100.00;101146.38;7398209;19;20010;-67
2023/08/13 02:40:11;;;;;;;4.22;3.83;;;;;;;18.21;100.00;101143.88;7401104;19;20018;-67
2023/08/13 02:42:39;;;;;;;4.50;4.10;;;;;;;18.20;100.00;101146.63;7401091;19;20031;-67
2023/08/13 02:45:09;;;;;;;3.97;3.67;;;;;;;18.18;100.00;101146.66;7398217;19;20018;-67
2023/08/13 02:47:40;;;;;;;4.63;3.92;;;;;;;18.16;100.00;101151.22;7400903;19;20035;-67
2023/08/13 02:50:10;;;;;;;4.35;3.80;;;;;;;18.15;100.00;101156.59;7397903;19;20011;-67
2023/08/13 02:52:38;;;;;;;4.18;3.70;;;;;;;18.14;100.00;101162.84;7400750;19;20016;-67
2023/08/13 02:55:07;;;;;;;4.10;3.80;;;;;;;18.13;100.00;101163.75;7397947;19;20018;-67
2023/08/13 02:57:36;;;;;;;4.70;4.22;;;;;;;18.14;100.00;101169.00;7400686;19;20032;-67
2023/08/13 03:00:05;;;;;;;4.93;4.00;;;;;;;18.14;100.00;101165.50;7397535;19;20018;-67
2023/08/13 03:02:33;;;;;;;4.32;3.95;;;;;;;18.13;100.00;101171.72;7400389;19;20041;-67
2023/08/13 03:05:05;;;;;;;4.25;3.85;;;;;;;18.12;100.00;101170.88;7397189;19;20031;-67
2023/08/13 03:07:33;;;;;;;4.13;3.70;;;;;;;18.12;100.00;101170.00;7398215;19;20035;-67
2023/08/13 03:10:02;;;;;;;6.13;4.28;;;;;;;18.10;100.00;101178.03;7397758;19;20011;-67
2023/08/13 03:12:30;;;;;;;4.13;3.72;;;;;;;18.10;100.00;101178.03;7400036;19;20015;-67
2023/08/13 03:14:59;;;;;;;4.55;4.18;;;;;;;18.10;100.00;101185.13;7396587;19;20010;-67
2023/08/13 03:17:27;;;;;;;4.85;4.22;;;;;;;18.09;100.00;101184.28;7397468;19;20018;-67
2023/08/13 03:19:57;;;;;;;4.72;4.32;;;;;;;18.07;100.00;101187.00;7397208;19;20513;-67
2023/08/13 03:22:28;;;;;;;4.78;4.38;;;;;;;18.07;100.00;101184.34;7397306;19;20007;-66
2023/08/13 03:24:57;;;;;;;4.53;4.05;;;;;;;18.04;100.00;101187.13;7396999;19;20015;-66
2023/08/13 03:27:25;;;;;;;4.38;3.97;;;;;;;18.01;100.00;101192.59;7397201;19;20027;-66
2023/08/13 03:29:54;;;;;;;4.90;4.38;;;;;;;18.00;100.00;101195.34;7399617;19;20010;-67
2023/08/13 03:32:23;;;;;;;5.15;4.30;;;;;;;17.97;100.00;101188.38;7397103;19;20086;-66
2023/08/13 03:34:51;;;;;;;6.57;4.70;;;;;;;17.96;100.00;101181.34;7396606;19;20430;-66
2023/08/13 03:37:20;;;;;;;4.65;4.22;;;;;;;17.95;100.00;101194.69;7399880;19;20079;-67
2023/08/13 03:39:51;;;;;;;5.43;4.93;;;;;;;17.92;100.00;101199.16;7396588;19;20376;-67
2023/08/13 03:42:19;;;;;;;4.70;4.20;;;;;;;17.91;100.00;101208.03;7399666;19;20086;-67
2023/08/13 03:44:48;;;;;;;5.70;5.05;;;;;;;17.89;100.00;101206.41;7396277;19;20538;-67
2023/08/13 03:47:16;;;;;;;7.72;5.18;;;;;;;17.86;100.00;101204.75;7396318;19;20481;-67
2023/08/13 03:49:45;;;;;;;5.38;4.57;;;;;;;17.85;100.00;101212.78;7396507;19;20070;-67
2023/08/13 03:52:13;;;;;;;5.88;4.43;;;;;;;17.82;100.00;101216.44;7396196;19;20011;-66
2023/08/13 03:54:42;;;;;;;5.03;4.50;;;;;;;17.80;100.00;101212.13;7396855;19;20080;-67
2023/08/13 03:57:13;;;;;;;47.28;34.28;;;;;;;17.78;100.00;101212.19;7396171;19;20372;-67
2023/08/13 03:59:41;;;;;;;13.25;10.98;;;;;;;17.78;100.00;101212.19;7399116;19;20010;-67
2023/08/13 04:02:10;;;;;;;13.70;5.95;;;;;;;17.79;100.00;101213.06;7396395;19;20066;-67
2023/08/13 04:04:38;;;;;;;5.43;4.93;;;;;;;17.77;100.00;101209.59;7396178;19;20018;-67
2023/08/13 04:07:07;;;;;;;5.80;5.30;;;;;;;17.75;100.00;101215.84;7396239;19;20082;-67
2023/08/13 04:09:35;;;;;;;5.68;5.07;;;;;;;17.73;100.00;101215.06;7396152;19;20014;-67
2023/08/13 04:12:04;;;;;;;5.60;5.10;;;;;;;17.73;100.00;101206.22;7396306;19;20011;-67
2023/08/13 04:14:35;;;;;;;5.57;5.03;;;;;;;17.71;100.00;101203.63;7395668;19;20375;-67
2023/08/13 04:17:03;;;;;;;5.38;4.88;;;;;;;17.71;100.00;101216.06;7398468;19;20011;-66
2023/08/13 04:19:32;;;;;;;5.45;4.90;;;;;;;17.70;100.00;101216.97;7397796;19;20030;-67
2023/08/13 04:22:00;;;;;;;7.05;5.10;;;;;;;17.68;100.00;101217.03;7397734;19;20027;-67
2023/08/13 04:24:29;;;;;;;6.40;5.55;;;;;;;17.68;100.00;101218.81;7396202;19;20494;-67
2023/08/13 04:26:57;;;;;;;6.93;5.47;;;;;;;17.65;100.00;101217.16;7392955;19;20375;-67
2023/08/13 04:29:26;;;;;;;6.43;5.63;;;;;;;17.65;100.00;101217.16;7395468;19;20485;-67
2023/08/13 04:31:57;;;;;;;9.10;5.60;;;;;;;17.65;100.00;101225.13;7397277;19;20485;-67
2023/08/13 04:34:25;;;;;;;6.18;5.65;;;;;;;17.65;100.00;101221.63;7395738;19;20371;-67
2023/08/13 04:36:54;;;;;;;77.88;53.40;;;;;;;17.65;100.00;101218.97;7395673;19;20074;-67
2023/08/13 04:39:22;;;;;;;43.33;29.25;;;;;;;17.64;100.00;101226.09;7395536;19;20018;-67
2023/08/13 04:41:51;;;;;;;53.20;36.25;;;;;;;17.63;100.00;101221.69;7396996;19;20415;-67
2023/08/13 04:44:19;;;;;;;21.83;17.77;;;;;;;17.64;100.00;101234.03;7394874;19;20023;-67
2023/08/13 04:46:48;;;;;;;15.82;12.23;;;;;;;17.66;100.00;101233.97;7396112;19;20107;-66
2023/08/13 04:49:19;;;;;;;8.48;7.13;;;;;;;17.66;100.00;101240.13;7395271;19;20070;-66
2023/08/13 04:51:47;;;;;;;6.63;6.00;;;;;;;17.67;100.00;101241.84;7396692;19;20010;-67
2023/08/13 04:54:16;;;;;;;6.80;6.20;;;;;;;17.69;100.00;101232.03;7394511;19;20014;-67
2023/08/13 04:56:44;;;;;;;7.53;5.53;;;;;;;17.71;100.00;101235.47;7396765;19;20090;-67
2023/08/13 04:59:12;;;;;;;6.28;5.63;;;;;;;17.73;100.00;101232.75;7394886;19;20027;-67
2023/08/13 05:01:41;;;;;;;6.95;5.65;;;;;;;17.78;100.00;101248.47;7396455;19;20364;-68
2023/08/13 05:04:10;;;;;;;5.82;5.03;;;;;;;17.79;100.00;101247.56;7394139;19;20082;-68
2023/08/13 05:06:41;;;;;;;6.75;5.43;;;;;;;17.82;100.00;101250.06;7394429;19;20023;-67
2023/08/13 05:09:09;;;;;;;5.38;4.88;;;;;;;17.84;100.00;101245.56;7394566;19;20372;-68
2023/08/13 05:11:45;;;;;;;6.35;5.25;;;;;;;17.89;100.00;101246.22;7394184;19;20376;-68
2023/08/13 05:14:20;;;;;;;5.47;4.95;;;;;;;17.92;100.00;101249.59;7394341;19;20078;-66
2023/08/13 05:16:49;;;;;;;5.68;4.97;;;;;;;17.97;100.00;101243.25;7396643;19;20031;-67
2023/08/13 05:19:17;;;;;;;5.22;4.63;;;;;;;18.00;100.00;101240.47;7394532;19;20027;-68
2023/08/13 05:21:48;;;;;;;13.52;5.03;;;;;;;18.05;100.00;101249.09;7395641;19;20031;-66
2023/08/13 05:24:16;;;;;;;5.68;4.72;;;;;;;18.10;100.00;101251.50;7393968;19;20477;-66
2023/08/13 05:26:45;;;;;;;7.28;4.20;;;;;;;18.16;100.00;101260.06;7395285;19;20082;-66
2023/08/13 05:29:13;;;;;;;4.40;4.00;;;;;;;18.21;100.00;101249.22;7394432;19;20010;-66
2023/08/13 05:31:42;;;;;;;5.05;4.22;;;;;;;18.25;100.00;101240.22;7394061;19;20368;-65
2023/08/13 05:34:10;;;;;;;6.07;4.10;;;;;;;18.30;100.00;101246.16;7393615;19;20028;-64
2023/08/13 05:36:48;;;;;;;4.45;3.95;;;;;;;18.34;100.00;101242.44;7391221;19;20031;-65
2023/08/13 05:39:17;;;;;;;5.45;3.65;;;;;;;18.38;100.00;101241.34;7393240;19;20027;-65
2023/08/13 05:41:45;;;;;;;7.47;4.20;;;;;;;18.43;100.00;101245.59;7394645;19;20494;-65
2023/08/13 05:44:14;;;;;;;4.68;3.72;;;;;;;18.47;100.00;101240.06;7393807;19;20015;-65
2023/08/13 05:46:42;;;;;;;4.57;3.72;;;;;;;18.53;100.00;101244.22;7394255;19;20010;-65
2023/08/13 05:49:11;;;;;;;5.93;3.80;;;;;;;18.59;100.00;101245.72;7394771;19;20014;-65
2023/08/13 05:51:39;;;;;;;6.28;4.20;;;;;;;18.64;100.00;101241.94;7394634;19;20011;-65
2023/08/13 05:54:12;;;;;;;4.07;3.20;;;;;;;18.70;100.00;101252.25;7393698;19;20082;-65
2023/08/13 05:56:40;;;;;;;4.82;3.85;;;;;;;18.76;99.95;101244.94;7393818;19;20018;-66
2023/08/13 05:59:09;;;;;;;3.55;3.25;;;;;;;18.81;99.44;101249.06;7395078;19;20010;-65
2023/08/13 06:01:37;;;;;;;4.57;3.80;;;;;;;18.85;99.14;101258.63;7393007;19;20036;-65
2023/08/13 06:04:07;;;;;;;5.40;3.75;;;;;;;18.88;98.55;101266.47;7393617;19;20018;-66
2023/08/13 06:06:35;;;;;;;4.25;3.75;;;;;;;18.92;97.98;101259.22;7392493;19;20028;-65
2023/08/13 06:09:05;;;;;;;4.15;3.75;;;;;;;18.93;96.95;101260.97;7394999;19;20031;-65
2023/08/13 06:11:37;;;;;;;5.32;3.10;;;;;;;18.95;97.05;101263.53;7398140;19;20492;-66
2023/08/13 06:14:06;;;;;;;4.90;3.08;;;;;;;18.96;96.56;101263.47;7395578;19;20018;-65
2023/08/13 06:16:34;;;;;;;4.20;3.55;;;;;;;18.98;96.15;101263.38;7392226;19;20482;-66
2023/08/13 06:19:03;;;;;;;3.78;2.92;;;;;;;19.00;96.10;101270.34;7392015;19;20481;-71
2023/08/13 06:21:31;;;;;;;6.78;3.35;;;;;;;19.02;95.41;101267.63;7394296;19;20014;-67
2023/08/13 06:24:00;;;;;;;5.78;3.10;;;;;;;19.04;95.10;101265.72;7392410;19;20050;-67
2023/08/13 06:26:28;;;;;;;3.75;3.30;;;;;;;19.07;94.91;101270.94;7393968;19;20382;-66
2023/08/13 06:28:59;;;;;;;4.07;2.65;;;;;;;19.11;94.59;101275.16;7391783;19;20075;-66
2023/08/13 06:31:28;;;;;;;5.82;2.72;;;;;;;19.14;94.58;101268.81;7392647;19;20031;-66
2023/08/13 06:33:56;;;;;;;4.18;3.15;;;;;;;19.16;94.57;101270.47;7391944;19;20043;-67
2023/08/13 06:36:25;;;;;;;4.68;3.20;;;;;;;19.18;94.29;101275.69;7392301;19;20027;-66
2023/08/13 06:38:53;;;;;;;6.40;3.00;;;;;;;19.20;93.85;101285.31;7392422;19;20011;-66
2023/08/13 06:41:22;;;;;;;4.60;2.70;;;;;;;19.21;93.35;101278.22;7391491;19;20166;-66
2023/08/13 06:43:50;;;;;;;4.13;2.70;;;;;;;19.21;92.83;101279.06;7391762;19;20018;-66
2023/08/13 06:46:21;;;;;;;6.40;2.50;;;;;;;19.22;92.18;101279.91;7391250;19;20498;-65
2023/08/13 06:48:49;;;;;;;3.88;2.58;;;;;;;19.23;92.42;101276.31;7393494;19;20090;-66
2023/08/13 06:51:18;;;;;;;7.10;3.05;;;;;;;19.25;92.41;101277.13;7395282;19;20027;-65
2023/08/13 06:53:46;;;;;;;4.40;2.78;;;;;;;19.27;92.18;101288.56;7399986;19;20198;-66
2023/08/13 06:56:15;;;;;;;14.48;3.42;;;;;;;19.30;91.85;101279.56;7398059;19;20498;-65
2023/08/13 06:58:43;;;;;;;5.57;2.67;;;;;;;19.33;91.44;101277.59;7401119;19;20031;-65
2023/08/13 07:01:12;;;;;;;4.10;2.30;;;;;;;19.35;91.01;101283.69;7400809;19;20031;-65
2023/08/13 07:03:44;;;;;;;3.15;2.30;;;;;;;19.38;90.20;101282.69;7398030;19;20078;-65
2023/08/13 07:06:12;;;;;;;6.25;2.17;;;;;;;19.41;89.70;101281.66;7398452;19;20045;-65
2023/08/13 07:08:41;;;;;;;7.05;1.92;;;;;;;19.47;88.42;101284.03;7397649;19;20070;-65
2023/08/13 07:11:10;;;;;;;3.08;2.17;;;;;;;19.50;87.69;101278.56;7397333;19;20489;-65
2023/08/13 07:13:38;;;;;;;6.35;2.10;;;;;;;19.54;87.11;101283.63;7397365;19;20082;-65
2023/08/13 07:16:09;;;;;;;5.70;2.20;;;;;;;19.61;86.22;101291.31;7397424;19;20380;-65
2023/08/13 07:18:38;;;;;;;3.40;1.80;;;;;;;19.66;85.81;101283.94;7397650;19;20014;-64
2023/08/13 07:21:11;;;;;;;6.43;2.00;;;;;;;19.70;84.85;101281.06;7396977;19;20006;-66
2023/08/13 07:23:39;;;;;;;4.93;1.90;;;;;;;19.76;84.15;101279.84;7398363;19;20015;-65
2023/08/13 07:26:08;;;;;;;3.65;1.65;;;;;;;19.82;83.01;101281.34;7396200;19;20402;-65
2023/08/13 07:28:40;;;;;;;4.55;1.80;;;;;;;19.87;81.20;101279.34;7396932;19;20002;-65
2023/08/13 07:31:09;;;;;;;4.38;1.98;;;;;;;19.92;80.57;101274.63;7397306;19;20018;-66
2023/08/13 07:33:38;;;;;;;4.60;1.95;;;;;;;19.98;79.78;101278.75;7398547;19;20007;-66
2023/08/13 07:36:09;;;;;;;6.22;2.10;;;;;;;20.06;79.26;101275.72;7397355;19;20019;-64
2023/08/13 07:38:37;;;;;;;4.75;1.95;;;;;;;20.14;78.50;101278.81;7396069;19;20027;-64
2023/08/13 07:41:06;;;;;;;3.40;1.58;;;;;;;20.22;77.80;101279.28;7397153;19;20015;-65
2023/08/13 07:43:34;;;;;;;6.43;1.58;;;;;;;20.30;77.69;101282.38;7397227;19;20011;-66
2023/08/13 07:46:03;;;;;;;4.32;1.55;;;;;;;20.37;77.48;101282.03;7397028;19;20014;-66
2023/08/13 07:48:31;;;;;;;9.30;2.58;;;;;;;20.47;77.09;101275.25;7397118;19;20082;-67
2023/08/13 07:51:00;;;;;;;5.00;1.85;;;;;;;20.53;76.71;101274.91;7396216;19;20543;-67
2023/08/13 07:53:31;;;;;;;6.13;2.13;;;;;;;20.60;76.68;101276.31;7396599;19;20066;-67
2023/08/13 07:56:00;;;;;;;6.65;2.25;;;;;;;20.68;75.76;101282.06;7397492;19;20011;-67
2023/08/13 07:58:28;;;;;;;6.15;2.90;;;;;;;20.77;75.37;101294.03;7397876;19;20010;-67
2023/08/13 08:00:57;;;;;;;4.30;2.03;;;;;;;20.86;74.03;101291.81;7396712;19;20011;-68
2023/08/13 08:03:26;;;;;;;6.13;2.00;;;;;;;20.94;74.21;101289.56;7396104;19;20014;-68
2023/08/13 08:05:54;;;;;;;5.78;2.63;;;;;;;21.01;73.47;101288.28;7395816;19;20010;-66
2023/08/13 08:08:24;;;;;;;6.05;1.80;;;;;;;21.12;72.64;101295.69;7395769;19;20010;-66
2023/08/13 08:10:55;;;;;;;10.13;2.15;;;;;;;21.20;71.54;101290.75;7396467;19;20011;-66
2023/08/13 08:13:24;;;;;;;5.70;2.08;;;;;;;21.28;70.94;101293.84;7397854;19;20074;-66
2023/08/13 08:15:52;;;;;;;4.60;1.90;;;;;;;21.35;69.28;101291.66;7395936;19;20502;-65
2023/08/13 08:18:21;;;;;;;6.78;2.00;;;;;;;21.39;68.33;101292.34;7396389;19;20007;-68
2023/08/13 08:20:49;;;;;;;9.32;5.78;;;;;;;21.47;67.26;101292.75;7398134;19;20014;-66
2023/08/13 08:23:18;;;;;;;8.32;3.15;;;;;;;21.53;66.94;101291.53;7395729;19;20023;-66
2023/08/13 08:25:47;;;;;;;5.63;2.75;;;;;;;21.57;66.44;101293.97;7395698;19;20007;-66
2023/08/13 08:28:18;;;;;;;5.13;1.90;;;;;;;21.63;65.91;101285.59;7396301;19;20023;-65
2023/08/13 08:30:46;;;;;;;6.22;2.03;;;;;;;21.70;65.71;101287.88;7397182;19;20011;-65
2023/08/13 08:33:15;;;;;;;7.53;2.50;;;;;;;21.76;65.02;101287.50;7395316;19;20011;-65
2023/08/13 08:35:44;;;;;;;5.30;2.58;;;;;;;21.83;64.56;101286.19;7395851;19;20039;-65
2023/08/13 08:38:13;;;;;;;7.60;2.40;;;;;;;21.90;63.49;101290.22;7396048;19;20030;-65
2023/08/13 08:40:45;;;;;;;5.47;2.20;;;;;;;22.00;63.23;101284.31;7394990;19;20355;-65
2023/08/13 08:43:14;;;;;;;11.63;3.47;;;;;;;22.11;63.11;101284.50;7394998;19;20033;-65
2023/08/13 08:45:46;;;;;;;28.58;9.05;;;;;;;22.23;61.24;101277.50;7394922;19;20435;-65
2023/08/13 08:48:15;;;;;;;9.65;3.05;;;;;;;22.33;61.09;101270.66;7395371;19;20022;-65
2023/08/13 08:50:45;;;;;;;3.90;2.10;;;;;;;22.43;60.56;101268.28;7394869;19;20007;-64
2023/08/13 08:53:13;;;;;;;6.75;2.03;;;;;;;22.52;61.02;101267.72;7394957;19;20070;-65
2023/08/13 08:55:43;;;;;;;4.93;2.03;;;;;;;22.60;61.04;101272.56;7396960;19;20021;-65
2023/08/13 08:58:12;;;;;;;5.30;2.00;;;;;;;22.65;59.97;101270.44;7396740;19;20011;-66
2023/08/13 09:00:40;;;;;;;6.88;2.20;;;;;;;22.69;59.03;101274.63;7394376;19;20477;-65
2023/08/13 09:03:11;;;;;;;6.72;1.92;;;;;;;22.72;58.77;101271.78;7396100;19;20007;-65
2023/08/13 09:05:41;;;;;;;5.65;2.10;;;;;;;22.75;59.03;101271.56;7395247;19;20010;-65
2023/08/13 09:08:13;;;;;;;8.15;2.47;;;;;;;22.80;59.25;101276.63;7394622;19;20021;-65
2023/08/13 09:10:43;;;;;;;5.03;2.10;;;;;;;22.88;58.90;101262.75;7394215;19;20007;-65
2023/08/13 09:13:12;;;;;;;4.53;1.63;;;;;;;22.96;58.84;101251.53;7392491;19;20513;-65
2023/08/13 09:15:42;;;;;;;5.95;2.00;;;;;;;23.02;58.43;101261.84;7394544;19;20014;-65
2023/08/13 09:18:13;;;;;;;4.50;1.50;;;;;;;23.07;58.04;101267.72;7393999;19;20015;-65
2023/08/13 09:20:46;;;;;;;5.72;1.77;;;;;;;23.11;57.04;101266.56;7392943;19;20010;-65
2023/08/13 09:23:23;;;;;;;5.75;1.83;;;;;;;23.13;55.83;101264.66;7393110;19;20007;-66
2023/08/13 09:25:55;;;;;;;4.88;1.73;;;;;;;23.14;54.70;101265.50;7393077;19;20485;-65
2023/08/13 09:28:24;;;;;;;3.45;1.67;;;;;;;23.15;53.82;101260.09;7393289;19;20376;-65
2023/08/13 09:30:53;;;;;;;4.72;1.60;;;;;;;23.13;53.73;101261.97;7393297;19;20481;-66
2023/08/13 09:33:26;;;;;;;6.15;2.15;;;;;;;23.18;54.07;101262.56;7394729;19;20015;-66
2023/08/13 09:35:54;;;;;;;5.65;1.60;;;;;;;23.20;54.38;101268.69;7393220;19;20066;-65
2023/08/13 09:38:23;;;;;;;4.00;1.65;;;;;;;23.23;54.07;101265.78;7393380;19;20019;-65
2023/08/13 09:40:52;;;;;;;3.92;1.35;;;;;;;23.27;53.64;101261.09;7394159;19;20098;-66
2023/08/13 09:43:26;;;;;;;4.22;1.88;;;;;;;23.31;53.71;101259.06;7393760;19;20400;-66
2023/08/13 09:45:58;;;;;;;4.35;1.40;;;;;;;23.36;52.88;101259.59;7393999;19;20077;-65
2023/08/13 09:48:29;;;;;;;4.18;1.48;;;;;;;23.40;51.50;101261.97;7395001;19;20014;-66
2023/08/13 09:51:00;;;;;;;3.83;1.75;;;;;;;23.47;52.12;101264.22;7395441;19;20372;-65
2023/08/13 09:53:32;;;;;;;5.57;1.95;;;;;;;23.54;50.95;101268.19;7392811;19;20027;-65
2023/08/13 09:56:03;;;;;;;6.10;2.35;;;;;;;23.59;51.51;101256.22;7395495;19;20021;-67
2023/08/13 09:58:33;;;;;;;3.63;1.52;;;;;;;23.69;50.90;101252.91;7393646;19;20015;-65
2023/08/13 10:01:03;;;;;;;5.53;2.05;;;;;;;23.77;51.01;101255.91;7392685;19;20469;-65
2023/08/13 10:03:35;;;;;;;6.07;1.60;;;;;;;23.84;49.87;101259.84;7392811;19;20027;-65
2023/08/13 10:06:03;;;;;;;6.05;1.63;;;;;;;23.90;49.70;101261.28;7392244;19;20032;-66
2023/08/13 10:08:32;;;;;;;4.32;1.83;;;;;;;23.98;49.17;101255.41;7391666;19;20081;-64
2023/08/13 10:11:02;;;;;;;3.90;1.70;;;;;;;24.03;49.14;101253.25;7395460;19;20055;-65
2023/08/13 10:13:30;;;;;;;5.95;1.70;;;;;;;24.12;49.15;101251.75;7391648;19;20011;-64
2023/08/13 10:15:59;;;;;;;6.90;2.35;;;;;;;24.23;48.85;101254.50;7392649;19;20011;-64
2023/08/13 10:18:28;;;;;;;4.80;1.60;;;;;;;24.32;48.48;101253.84;7393558;19;20533;-64
2023/08/13 10:20:59;;;;;;;5.30;1.40;;;;;;;24.43;47.87;101255.75;7391986;19;20019;-65
2023/08/13 10:23:29;;;;;;;4.18;1.65;;;;;;;24.53;47.41;101250.59;7393434;19;20018;-65
2023/08/13 10:25:58;;;;;;;5.05;1.70;;;;;;;24.62;47.53;101249.91;7394853;19;20071;-66
2023/08/13 10:28:33;;;;;;;5.65;1.83;;;;;;;24.73;47.40;101251.81;7399984;19;20014;-64
2023/08/13 10:31:27;;;;;;;4.93;1.63;;;;;;;24.84;46.82;101253.72;7400513;19;20011;-66
2023/08/13 10:34:04;;;;;;;4.10;1.35;;;;;;;24.95;46.82;101255.63;7398704;19;20018;-68
2023/08/13 10:36:51;;;;;;;4.03;1.63;;;;;;;25.05;47.14;101249.41;7399756;19;20070;-65
2023/08/13 10:39:45;;;;;;;4.75;1.70;;;;;;;25.18;46.46;101256.56;7399810;19;20014;-65
2023/08/13 10:42:46;;;;;;;4.13;1.42;;;;;;;25.28;44.82;101259.41;7398819;19;20023;-65
2023/08/13 10:45:17;;;;;;;2.55;1.38;;;;;;;25.35;46.39;101257.94;7397663;19;20034;-65
2023/08/13 10:47:50;;;;;;;5.78;1.83;;;;;;;25.41;45.19;101252.13;7398293;19;20033;-66
2023/08/13 10:50:33;;;;;;;5.55;1.95;;;;;;;25.48;45.47;101248.00;7398403;19;20011;-66
2023/08/13 10:53:12;;;;;;;3.83;1.65;;;;;;;25.56;44.23;101251.94;7399476;19;20035;-66
2023/08/13 10:55:42;;;;;;;4.68;1.25;;;;;;;25.59;44.69;101249.00;7397829;19;20015;-66
2023/08/13 10:58:24;;;;;;;5.50;1.83;;;;;;;25.59;44.33;101238.25;7399470;19;20011;-66
2023/08/13 11:00:59;;;;;;;7.65;3.25;;;;;;;25.63;44.75;101245.97;7397710;19;20011;-66
2023/08/13 11:03:31;;;;;;;3.08;1.30;;;;;;;25.69;44.64;101237.44;7397776;19;20015;-66
2023/08/13 11:06:00;;;;;;;4.38;1.60;;;;;;;25.75;44.55;101238.78;7399766;19;20024;-66
2023/08/13 11:08:33;;;;;;;5.53;1.58;;;;;;;25.81;42.94;101240.13;7397306;19;20031;-66
2023/08/13 11:11:01;;;;;;;3.55;1.23;;;;;;;25.84;43.84;101235.38;7397901;19;20031;-65
2023/08/13 11:13:32;;;;;;;1.92;1.00;;;;;;;25.89;43.38;101232.31;7397078;19;20035;-66
2023/08/13 11:16:07;;;;;;;4.85;1.70;;;;;;;25.94;43.17;101223.88;7398092;19;20097;-66
2023/08/13 11:18:35;;;;;;;2.55;1.35;;;;;;;25.99;43.23;101221.69;7397468;19;20022;-64
2023/08/13 11:21:04;;;;;;;5.22;1.50;;;;;;;26.02;43.56;101221.44;7399546;19;20077;-68
2023/08/13 11:23:35;;;;;;;2.42;1.60;;;;;;;26.06;43.51;101227.44;7398751;19;20014;-63
2023/08/13 11:26:07;;;;;;;3.65;2.25;;;;;;;26.09;43.32;101222.69;7396601;19;20546;-65
2023/08/13 11:28:36;;;;;;;3.60;2.10;;;;;;;26.08;43.56;101220.97;7396403;19;20010;-65
2023/08/13 11:31:04;;;;;;;4.35;1.73;;;;;;;26.14;43.50;101225.84;7396677;19;20014;-63